createdAt,value
2022-08-04T00:02:10.408Z,100435.06
2022-08-04T00:04:44.195Z,100442.47
2022-08-04T00:07:17.858Z,100427.03
2022-08-04T00:09:51.241Z,100433.53
2022-08-04T00:12:20.981Z,100433.56
2022-08-04T00:14:59.787Z,100433.00
2022-08-04T00:17:33.312Z,100429.13
2022-08-04T00:20:03.288Z,100430.28
2022-08-04T00:22:33.567Z,100438.38
2022-08-04T00:25:04.566Z,100435.13
2022-08-04T00:27:32.973Z,100432.41
2022-08-04T00:30:05.405Z,100430.25
2022-08-04T00:32:34.837Z,100421.53
2022-08-04T00:35:03.942Z,100421.06
2022-08-04T00:37:32.837Z,100422.19
2022-08-04T00:40:04.127Z,100435.66
2022-08-04T00:42:58.189Z,100429.69
2022-08-04T00:46:15.903Z,100421.31
2022-08-04T00:48:55.372Z,100425.63
2022-08-04T00:51:34.804Z,100425.94
2022-08-04T00:54:07.830Z,100423.72
2022-08-04T00:57:10.267Z,100421.56
2022-08-04T01:00:06.620Z,100418.91
2022-08-04T01:02:39.443Z,100414.56
2022-08-04T01:05:08.497Z,100412.94
2022-08-04T01:08:16.211Z,100410.50
2022-08-04T01:10:59.668Z,100402.06
2022-08-04T01:13:50.737Z,100405.88
2022-08-04T01:16:19.570Z,100405.31
2022-08-04T01:18:54.039Z,100403.16
2022-08-04T01:22:09.926Z,100402.06
2022-08-04T01:25:02.153Z,100401.81
2022-08-04T01:27:47.688Z,100397.19
2022-08-04T01:30:17.557Z,100398.28
2022-08-04T01:32:50.305Z,100393.66
2022-08-04T01:35:47.302Z,100390.38
2022-08-04T01:38:21.463Z,100399.91
2022-08-04T01:40:54.065Z,100387.97
2022-08-04T01:43:22.708Z,100399.91
2022-08-04T01:45:54.207Z,100394.47
2022-08-04T01:48:26.262Z,100383.06
2022-08-04T01:50:54.713Z,100380.88
2022-08-04T01:53:22.707Z,100383.06
2022-08-04T01:55:54.696Z,100387.13
2022-08-04T01:58:25.241Z,100382.81
2022-08-04T02:01:05.010Z,100378.44
2022-08-04T02:04:18.213Z,100382.53
2022-08-04T02:06:33.229Z,100379.50
2022-08-04T02:09:21.057Z,100370.78
2022-08-04T02:12:02.760Z,100369.97
2022-08-04T02:14:41.700Z,100365.41
2022-08-04T02:17:14.306Z,100366.25
2022-08-04T02:20:07.472Z,100364.56
2022-08-04T02:22:42.866Z,100359.75
2022-08-04T02:25:12.614Z,100367.88
2022-08-04T02:28:00.024Z,100365.16
2022-08-04T02:30:33.216Z,100351.56
2022-08-04T02:33:05.506Z,100351.03
2022-08-04T02:35:37.660Z,100353.75
2022-08-04T02:38:13.994Z,100354.53
2022-08-04T02:40:43.345Z,100349.44
2022-08-04T02:43:11.446Z,100345.59
2022-08-04T02:46:43.495Z,100344.50
2022-08-04T02:49:12.718Z,100345.03
2022-08-04T02:51:43.961Z,100339.63
2022-08-04T02:54:12.930Z,100337.44
2022-08-04T02:56:42.466Z,100344.50
2022-08-04T02:59:13.029Z,100331.22
2022-08-04T03:01:56.879Z,100332.59
2022-08-04T03:04:46.920Z,100329.31
2022-08-04T03:07:41.477Z,100329.59
2022-08-04T03:10:31.944Z,100334.72
2022-08-04T03:13:38.068Z,100330.94
2022-08-04T03:16:38.684Z,100322.25
2022-08-04T03:19:59.131Z,100323.88
2022-08-04T03:23:12.510Z,100324.69
2022-08-04T03:26:20.993Z,100324.41
2022-08-04T03:29:10.511Z,100315.72
2022-08-04T03:32:03.182Z,100308.94
2022-08-04T03:34:43.003Z,100315.19
2022-08-04T03:37:27.197Z,100311.41
2022-08-04T03:40:30.120Z,100318.19
2022-08-04T03:43:59.212Z,100310.31
2022-08-04T03:46:45.236Z,100310.03
2022-08-04T03:49:42.084Z,100304.31
2022-08-04T03:52:32.000Z,100303.81
2022-08-04T03:55:18.222Z,100300.81
2022-08-04T03:57:57.045Z,100305.69
2022-08-04T04:00:28.826Z,100309.75
2022-08-04T04:03:29.279Z,100304.06
2022-08-04T04:06:38.580Z,100303.25
2022-08-04T04:09:52.957Z,100296.22
2022-08-04T04:13:13.451Z,100299.47
2022-08-04T04:16:15.578Z,100298.38
2022-08-04T04:19:24.715Z,100298.09
2022-08-04T04:22:05.723Z,100289.44
2022-08-04T04:24:53.964Z,100301.09
2022-08-04T04:27:34.222Z,100296.22
2022-08-04T04:30:07.691Z,100293.50
2022-08-04T04:33:04.982Z,100289.97
2022-08-04T04:35:40.154Z,100290.22
2022-08-04T04:38:32.252Z,100286.72
2022-08-04T04:41:06.902Z,100281.53
2022-08-04T04:44:38.830Z,100295.66
2022-08-04T04:51:01.487Z,100276.66
2022-08-04T04:53:36.892Z,100279.91
2022-08-04T04:56:09.939Z,100286.34
2022-08-04T04:58:39.425Z,100281.44
2022-08-04T05:01:21.721Z,100274.81
2022-08-04T05:04:57.008Z,100273.97
2022-08-04T05:07:53.130Z,100272.50
2022-08-04T05:10:32.254Z,100279.16
2022-08-04T05:14:38.406Z,100269.94
2022-08-04T05:16:02.618Z,100280.00
2022-08-04T05:18:32.461Z,100279.94
2022-08-04T05:21:11.148Z,100276.50
2022-08-04T05:23:45.828Z,100275.25
2022-08-04T05:26:17.259Z,100282.09
2022-08-04T05:28:50.598Z,100277.66
2022-08-04T05:31:21.648Z,100280.91
2022-08-04T05:33:52.199Z,100266.47
2022-08-04T05:36:39.771Z,100276.97
2022-08-04T05:39:14.330Z,100274.97
2022-08-04T05:41:45.756Z,100267.75
2022-08-04T05:45:20.165Z,100265.22
2022-08-04T05:47:48.273Z,100258.69
2022-08-04T05:50:16.951Z,100269.63
2022-08-04T05:52:45.297Z,100274.31
2022-08-04T05:55:48.849Z,100268.47
2022-08-04T05:58:06.215Z,100263.22
2022-08-04T06:00:41.137Z,100263.44
2022-08-04T06:03:10.944Z,100263.00
2022-08-04T06:05:43.582Z,100267.88
2022-08-04T06:08:13.446Z,100264.44
2022-08-04T06:10:47.809Z,100278.09
2022-08-04T06:13:48.317Z,100272.50
2022-08-04T06:16:07.827Z,100283.09
2022-08-04T06:19:59.643Z,100272.03
2022-08-04T06:21:29.473Z,100269.97
2022-08-04T06:24:04.312Z,100275.19
2022-08-04T06:26:34.505Z,100277.09
2022-08-04T06:29:02.375Z,100264.13
2022-08-04T06:32:27.591Z,100269.34
2022-08-04T06:34:32.064Z,100275.25
2022-08-04T06:37:00.109Z,100273.44
2022-08-04T06:39:29.210Z,100272.31
2022-08-04T06:42:22.219Z,100272.78
2022-08-04T06:44:47.749Z,100277.38
2022-08-04T06:47:19.285Z,100281.56
2022-08-04T06:51:26.908Z,100288.06
2022-08-04T06:52:35.262Z,100283.22
2022-08-04T06:55:03.064Z,100279.78
2022-08-04T06:57:32.998Z,100291.16
2022-08-04T07:00:04.319Z,100277.94
2022-08-04T07:02:34.566Z,100278.94
2022-08-04T07:05:07.272Z,100277.81
2022-08-04T07:07:36.874Z,100277.50
2022-08-04T07:10:22.363Z,100283.63
2022-08-04T07:12:53.074Z,100276.91
2022-08-04T07:15:22.182Z,100270.78
2022-08-04T07:17:52.192Z,100268.53
2022-08-04T07:20:34.034Z,100260.44
2022-08-04T07:23:04.821Z,100257.22
2022-08-04T07:25:59.866Z,100260.63
2022-08-04T07:28:22.901Z,100264.34
2022-08-04T07:30:50.949Z,100264.97
2022-08-04T07:33:19.476Z,100260.13
2022-08-04T07:36:05.297Z,100275.59
2022-08-04T07:38:37.892Z,100263.94
2022-08-04T07:41:37.271Z,100273.97
2022-08-04T07:44:07.288Z,100262.94
2022-08-04T07:46:36.330Z,100261.25
2022-08-04T07:49:04.823Z,100261.22
2022-08-04T07:51:35.409Z,100269.97
2022-08-04T07:54:05.575Z,100264.19
2022-08-04T07:56:35.806Z,100266.50
2022-08-04T07:59:04.860Z,100267.31
2022-08-04T08:01:37.826Z,100265.19
2022-08-04T08:04:07.630Z,100274.72
2022-08-04T08:06:42.724Z,100269.06
2022-08-04T08:09:14.898Z,100268.22
2022-08-04T08:12:38.167Z,100271.50
2022-08-04T08:14:33.516Z,100262.03
2022-08-04T08:17:05.450Z,100281.59
2022-08-04T08:19:34.851Z,100273.53
2022-08-04T08:22:03.996Z,100272.72
2022-08-04T08:24:33.920Z,100272.06
2022-08-04T08:27:04.688Z,100267.06
2022-08-04T08:29:34.774Z,100267.63
2022-08-04T08:32:08.477Z,100267.47
2022-08-04T08:34:37.830Z,100262.13
2022-08-04T08:37:13.218Z,100267.47
2022-08-04T08:39:44.332Z,100255.78
2022-08-04T08:42:24.601Z,100259.59
2022-08-04T08:45:21.646Z,100259.97
2022-08-04T08:48:12.893Z,100261.75
2022-08-04T08:50:54.232Z,100273.06
2022-08-04T08:53:32.212Z,100260.06
2022-08-04T08:56:15.307Z,100263.13
2022-08-04T08:59:03.173Z,100260.56
2022-08-04T09:01:45.888Z,100258.66
2022-08-04T09:04:38.952Z,100262.69
2022-08-04T09:07:25.757Z,100266.63
2022-08-04T09:10:02.671Z,100249.00
2022-08-04T09:12:37.376Z,100252.91
2022-08-04T09:15:07.779Z,100251.16
2022-08-04T09:17:38.990Z,100251.84
2022-08-04T09:20:13.869Z,100261.19
2022-08-04T09:22:51.376Z,100257.38
2022-08-04T09:25:25.566Z,100256.00
2022-08-04T09:27:55.956Z,100258.16
2022-08-04T09:30:29.482Z,100252.41
2022-08-04T09:33:04.566Z,100260.69
2022-08-04T09:35:44.376Z,100255.41
2022-08-04T09:38:18.093Z,100263.84
2022-08-04T09:40:55.180Z,100268.81
2022-08-04T09:43:58.875Z,100261.78
2022-08-04T09:46:26.269Z,100257.16
2022-08-04T09:48:59.028Z,100246.72
2022-08-04T09:51:57.206Z,100257.91
2022-08-04T09:54:33.352Z,100255.97
2022-08-04T09:57:07.596Z,100261.25
2022-08-04T09:59:42.603Z,100246.09
2022-08-04T10:02:12.941Z,100253.84
2022-08-04T10:04:41.669Z,100253.59
2022-08-04T10:07:37.026Z,100243.84
2022-08-04T10:10:16.396Z,100246.53
2022-08-04T10:12:54.035Z,100249.50
2022-08-04T10:15:30.017Z,100247.00
2022-08-04T10:18:26.692Z,100253.81
2022-08-04T10:21:10.252Z,100264.50
2022-08-04T10:23:55.699Z,100256.19
2022-08-04T10:26:34.730Z,100258.06
2022-08-04T10:29:07.116Z,100271.72
2022-08-04T10:31:39.021Z,100276.28
2022-08-04T10:34:14.004Z,100282.44
2022-08-04T10:36:47.420Z,100270.75
2022-08-04T10:39:42.683Z,100278.00
2022-08-04T10:42:17.119Z,100274.78
2022-08-04T10:44:57.558Z,100278.22
2022-08-04T10:47:33.641Z,100267.72
2022-08-04T10:50:02.834Z,100268.72
2022-08-04T10:52:35.990Z,100272.34
2022-08-04T10:55:10.391Z,100274.22
2022-08-04T10:57:41.142Z,100271.34
2022-08-04T11:00:12.983Z,100279.50
2022-08-04T11:02:45.408Z,100281.25
2022-08-04T11:05:20.524Z,100277.53
2022-08-04T11:07:51.912Z,100279.06
2022-08-04T11:10:25.503Z,100278.25
2022-08-04T11:12:58.336Z,100276.72
2022-08-04T11:15:30.803Z,100277.13
2022-08-04T11:18:01.266Z,100278.53
2022-08-04T11:20:36.351Z,100277.44
2022-08-04T11:23:07.967Z,100282.28
2022-08-04T11:25:49.742Z,100279.78
2022-08-04T11:28:25.349Z,100276.19
2022-08-04T11:30:55.151Z,100276.78
2022-08-04T11:33:34.739Z,100275.88
2022-08-04T11:36:10.280Z,100279.97
2022-08-04T11:38:52.231Z,100288.34
2022-08-04T11:41:31.801Z,100286.63
2022-08-04T11:44:04.167Z,100284.72
2022-08-04T11:46:38.441Z,100281.09
2022-08-04T11:49:09.864Z,100282.72
2022-08-04T11:51:39.177Z,100283.03
2022-08-04T11:54:07.845Z,100295.63
2022-08-04T11:56:37.865Z,100298.97
2022-08-04T12:00:10.642Z,100295.19
2022-08-04T12:03:03.497Z,100283.31
2022-08-04T12:05:37.203Z,100302.97
2022-08-04T12:08:19.441Z,100303.00
2022-08-04T12:10:52.927Z,100310.75
2022-08-04T12:13:35.860Z,100305.41
2022-08-04T12:16:07.941Z,100319.69
2022-08-04T12:18:40.544Z,100311.25
2022-08-04T12:21:13.876Z,100320.25
2022-08-04T12:23:45.256Z,100317.50
2022-08-04T12:26:17.741Z,100311.78
2022-08-04T12:31:39.327Z,100326.66
2022-08-04T12:34:10.473Z,100330.53
2022-08-04T12:36:44.953Z,100330.81
2022-08-04T12:39:16.151Z,100327.94
2022-08-04T12:41:52.744Z,100345.66
2022-08-04T12:44:36.915Z,100338.84
2022-08-04T12:47:36.915Z,100341.88
2022-08-04T12:50:00.702Z,100367.22
2022-08-04T12:55:19.411Z,100369.19
2022-08-04T12:57:49.082Z,100360.25
2022-08-04T13:00:30.090Z,100369.16
2022-08-04T13:03:02.329Z,100363.88
2022-08-04T13:05:31.296Z,100355.00
2022-08-04T13:07:59.893Z,100353.56
2022-08-04T13:10:30.227Z,100352.88
2022-08-04T13:13:00.744Z,100347.56
2022-08-04T13:15:31.123Z,100353.69
2022-08-04T13:18:02.051Z,100351.50
2022-08-04T13:20:32.773Z,100349.53
2022-08-04T13:23:05.446Z,100364.00
2022-08-04T13:26:45.145Z,100365.66
2022-08-04T13:28:23.079Z,100367.19
2022-08-04T13:30:57.356Z,100361.88
2022-08-04T13:33:31.373Z,100359.59
2022-08-04T13:36:00.430Z,100367.31
2022-08-04T13:38:29.588Z,100348.97
2022-08-04T13:40:58.781Z,100352.19
2022-08-04T13:44:15.938Z,100343.66
2022-08-04T13:46:28.119Z,100340.84
2022-08-04T13:49:23.500Z,100334.59
2022-08-04T13:55:27.826Z,100326.25
2022-08-04T13:58:03.135Z,100328.53
2022-08-04T14:00:49.486Z,100333.03
2022-08-04T14:03:28.226Z,100331.06
2022-08-04T14:06:14.846Z,100325.34
2022-08-04T14:09:02.983Z,100326.47
2022-08-04T14:12:06.460Z,100326.25
2022-08-04T14:14:28.811Z,100331.38
2022-08-04T14:16:59.042Z,100318.78
2022-08-04T14:19:48.431Z,100318.63
2022-08-04T14:22:30.339Z,100313.84
2022-08-04T14:25:00.498Z,100318.28
2022-08-04T14:27:30.136Z,100305.91
2022-08-04T14:29:58.832Z,100322.31
2022-08-04T14:32:29.006Z,100313.75
2022-08-04T14:34:59.478Z,100315.91
2022-08-04T14:37:36.398Z,100325.16
2022-08-04T14:40:30.754Z,100319.66
2022-08-04T14:43:01.098Z,100308.66
2022-08-04T14:45:31.460Z,100314.81
2022-08-04T14:49:03.495Z,100313.94
2022-08-04T14:51:37.924Z,100306.97
2022-08-04T14:54:09.049Z,100313.94
2022-08-04T14:56:48.364Z,100300.41
2022-08-04T14:59:17.255Z,100303.69
2022-08-04T15:02:00.401Z,100313.09
2022-08-04T15:04:31.297Z,100315.03
2022-08-04T15:07:04.658Z,100303.88
2022-08-04T15:09:33.421Z,100306.22
2022-08-04T15:12:01.335Z,100305.81
2022-08-04T15:14:36.449Z,100310.50
2022-08-04T15:17:11.985Z,100306.44
2022-08-04T15:19:41.476Z,100312.56
2022-08-04T15:22:25.307Z,100328.06
2022-08-04T15:24:56.051Z,100312.00
2022-08-04T15:27:26.330Z,100308.00
2022-08-04T15:29:59.914Z,100295.34
2022-08-04T15:32:29.943Z,100302.13
2022-08-04T15:35:03.586Z,100313.69
2022-08-04T15:37:40.913Z,100306.28
2022-08-04T15:40:12.697Z,100313.38
2022-08-04T15:42:47.553Z,100313.31
2022-08-04T15:46:33.004Z,100324.16
2022-08-04T15:48:30.929Z,100317.34
2022-08-04T15:51:04.842Z,100311.56
2022-08-04T15:54:27.494Z,100299.06
2022-08-04T16:01:15.838Z,100318.94
2022-08-04T16:04:00.230Z,100313.47
2022-08-04T16:06:50.247Z,100326.84
2022-08-04T16:09:45.605Z,100326.16
2022-08-04T16:12:54.365Z,100329.28
2022-08-04T16:15:39.636Z,100328.75
2022-08-04T16:19:08.861Z,100342.88
2022-08-04T16:21:48.694Z,100322.81
2022-08-04T16:24:21.576Z,100323.25
2022-08-04T16:26:57.260Z,100329.16
2022-08-04T16:29:40.493Z,100336.66
2022-08-04T16:32:16.798Z,100338.94
2022-08-04T16:34:55.008Z,100334.03
2022-08-04T16:37:26.474Z,100348.53
2022-08-04T16:40:27.413Z,100349.72
2022-08-04T16:43:03.498Z,100356.00
2022-08-04T16:45:48.761Z,100355.81
2022-08-04T16:48:18.076Z,100369.31
2022-08-04T16:50:52.837Z,100364.00
2022-08-04T16:53:53.206Z,100366.47
2022-08-04T16:56:14.363Z,100356.06
2022-08-04T16:58:52.989Z,100358.13
2022-08-04T17:01:33.418Z,100361.81
2022-08-04T17:04:06.202Z,100358.22
2022-08-04T17:06:39.240Z,100371.25
2022-08-04T17:09:11.478Z,100375.25
2022-08-04T17:12:40.848Z,100375.78
2022-08-04T17:15:22.589Z,100351.38
2022-08-04T17:18:04.145Z,100350.44
2022-08-04T17:20:59.360Z,100350.44
2022-08-04T17:24:12.948Z,100360.75
2022-08-04T17:26:22.953Z,100350.94
2022-08-04T17:29:09.458Z,100373.78
2022-08-04T17:31:41.124Z,100376.31
2022-08-04T17:34:16.617Z,100358.34
2022-08-04T17:36:48.434Z,100355.13
2022-08-04T17:39:21.570Z,100351.88
2022-08-04T17:41:56.673Z,100345.31
2022-08-04T17:44:36.091Z,100344.03
2022-08-04T17:47:18.379Z,100357.75
2022-08-04T17:49:53.108Z,100363.69
2022-08-04T17:52:39.613Z,100355.19
2022-08-04T17:55:13.642Z,100361.59
2022-08-04T17:57:52.203Z,100362.56
2022-08-04T18:00:20.832Z,100376.81
2022-08-04T18:02:55.606Z,100371.09
2022-08-04T18:05:50.320Z,100365.53
2022-08-04T18:11:05.951Z,100352.53
2022-08-04T18:13:42.608Z,100361.44
2022-08-04T18:16:22.643Z,100385.97
2022-08-04T18:19:11.514Z,100384.19
2022-08-04T18:21:46.347Z,100392.81
2022-08-04T18:24:34.189Z,100379.06
2022-08-04T18:27:17.653Z,100386.38
2022-08-04T18:30:15.047Z,100380.88
2022-08-04T18:32:34.282Z,100390.06
2022-08-04T18:35:08.019Z,100402.91
2022-08-04T18:38:06.033Z,100391.56
2022-08-04T18:40:53.248Z,100397.16
2022-08-04T18:43:28.519Z,100397.97
2022-08-04T18:46:14.492Z,100394.66
2022-08-04T18:48:45.277Z,100401.88
2022-08-04T18:51:24.411Z,100410.38
2022-08-04T18:53:55.107Z,100404.19
2022-08-04T18:56:29.537Z,100393.00
2022-08-04T18:59:03.846Z,100415.13
2022-08-04T19:02:12.839Z,100413.56
2022-08-04T19:04:33.975Z,100417.59
2022-08-04T19:07:28.645Z,100424.16
2022-08-04T19:09:57.594Z,100426.84
2022-08-04T19:12:28.664Z,100421.75
2022-08-04T19:15:08.136Z,100426.78
2022-08-04T19:17:53.926Z,100424.06
2022-08-04T19:20:27.175Z,100424.06
2022-08-04T19:26:03.750Z,100441.19
2022-08-04T19:31:34.097Z,100433.97
2022-08-04T19:34:07.755Z,100440.03
2022-08-04T19:36:35.769Z,100438.38
2022-08-04T19:39:11.784Z,100440.19
2022-08-04T19:42:05.702Z,100444.50
2022-08-04T19:44:30.141Z,100445.47
2022-08-04T19:47:00.542Z,100448.44
2022-08-04T19:50:04.265Z,100428.34
2022-08-04T19:52:33.411Z,100430.59
2022-08-04T19:55:10.778Z,100425.25
2022-08-04T19:57:46.096Z,100426.22
2022-08-04T20:00:17.483Z,100423.72
2022-08-04T20:03:01.716Z,100425.25
2022-08-04T20:05:52.485Z,100431.22
2022-08-04T20:08:21.008Z,100425.22
2022-08-04T20:10:52.050Z,100432.22
2022-08-04T20:13:20.955Z,100441.75
2022-08-04T20:15:57.481Z,100430.91
2022-08-04T20:21:19.332Z,100437.97
2022-08-04T20:23:52.591Z,100439.94
2022-08-04T20:26:21.780Z,100434.56
2022-08-04T20:28:51.992Z,100433.66
2022-08-04T20:31:22.313Z,100449.06
2022-08-04T20:33:55.020Z,100441.94
2022-08-04T20:36:23.356Z,100437.50
2022-08-04T20:38:54.677Z,100444.56
2022-08-04T20:41:24.103Z,100439.81
2022-08-04T20:43:52.214Z,100442.91
2022-08-04T20:46:29.330Z,100439.03
2022-08-04T20:48:59.327Z,100458.63
2022-08-04T20:51:32.256Z,100453.69
2022-08-04T20:54:03.531Z,100470.28
2022-08-04T20:56:50.933Z,100464.78
2022-08-04T20:59:21.249Z,100472.44
2022-08-04T21:01:53.623Z,100479.41
2022-08-04T21:04:45.552Z,100472.09
2022-08-04T21:07:17.770Z,100485.75
2022-08-04T21:09:50.970Z,100489.69
2022-08-04T21:15:14.049Z,100498.88
2022-08-04T21:17:58.078Z,100509.47
2022-08-04T21:20:34.518Z,100497.91
2022-08-04T21:23:05.178Z,100499.53
2022-08-04T21:25:42.564Z,100502.41
2022-08-04T21:28:20.442Z,100509.94
2022-08-04T21:30:54.021Z,100510.53
2022-08-04T21:33:43.948Z,100509.28
2022-08-04T21:36:14.558Z,100518.22
2022-08-04T21:38:51.381Z,100519.09
2022-08-04T21:41:24.878Z,100524.31
2022-08-04T21:43:58.763Z,100529.03
2022-08-04T21:46:27.293Z,100529.69
2022-08-04T21:48:58.839Z,100532.75
2022-08-04T21:51:57.774Z,100544.44
2022-08-04T21:54:17.466Z,100544.94
2022-08-04T21:57:49.968Z,100556.44
2022-08-04T22:00:21.437Z,100567.50
2022-08-04T22:02:53.043Z,100573.50
2022-08-04T22:05:21.989Z,100571.47
2022-08-04T22:07:51.693Z,100574.94
2022-08-04T22:10:32.373Z,100581.47
2022-08-04T22:13:07.030Z,100586.91
2022-08-04T22:16:05.405Z,100590.69
2022-08-04T22:18:27.661Z,100590.91
2022-08-04T22:20:56.847Z,100597.69
2022-08-04T22:23:26.400Z,100600.47
2022-08-04T22:25:56.183Z,100598.25
2022-08-04T22:28:28.182Z,100602.63
2022-08-04T22:30:58.474Z,100608.31
2022-08-04T22:33:54.407Z,100602.63
2022-08-04T22:36:16.358Z,100597.22
2022-08-04T22:38:49.994Z,100604.25
2022-08-04T22:41:33.636Z,100614.13
2022-08-04T22:44:03.408Z,100597.22
2022-08-04T22:46:36.137Z,100597.50
2022-08-04T22:49:04.136Z,100600.03
2022-08-04T22:51:32.098Z,100591.28
2022-08-04T22:54:01.732Z,100592.13
2022-08-04T22:56:37.453Z,100575.84
2022-08-04T22:59:09.956Z,100575.88
2022-08-04T23:02:00.495Z,100572.31
2022-08-04T23:04:27.351Z,100575.31
2022-08-04T23:06:55.498Z,100571.50
2022-08-04T23:09:49.230Z,100571.91
2022-08-04T23:12:27.860Z,100559.59
2022-08-04T23:14:57.036Z,100570.75
2022-08-04T23:17:28.124Z,100580.50
2022-08-04T23:20:57.889Z,100589.69
2022-08-04T23:23:26.140Z,100595.34
2022-08-04T23:26:07.469Z,100616.34
2022-08-04T23:28:35.888Z,100635.47
2022-08-04T23:31:03.896Z,100621.94
2022-08-04T23:33:50.771Z,100620.13
2022-08-04T23:36:30.052Z,100610.72
2022-08-04T23:39:00.689Z,100581.06
2022-08-04T23:42:30.202Z,100497.38
2022-08-04T23:45:00.109Z,100493.03
2022-08-04T23:48:15.793Z,100472.31
2022-08-04T23:50:18.398Z,100476.69
2022-08-04T23:52:46.091Z,100487.00
2022-08-04T23:55:19.170Z,100454.97
2022-08-04T23:58:05.684Z,100408.25
